Thunder radar more information blitzortung!


Radar de pluja more information rain snow radar


Visita la nostra xarxa de llocs de meteo:

Template documentation
and downloads

And another site



No particular awareness of the weather is required.    There are no Weather-warnings

Pagina Historial Weather Underground text

Diari Resum Setembre 11, 2017 Unitats:  Mètric    Imperial   Tant
« Previous Dia
SegĂźent Dia »
Diari Setmana Mensual Anual Personalitzada
  Maxima: Minima: Media:
Temperatura: -17.8 °C -8.7 °C -3.9 °C
Punt de rosada: -17.8 °C -14.2 °C -11.3 °C
Humitat: Humidity % 31 % 45 %
Wind Speed: 0 km/h 0 km/h 14.2 km/h
RĂ fegues de vent: 0 km/h - -
Vent:- - SW
Pression baro: 0 hPa 34097 hPa -
Precipitacions: 0 mm    
Historical Graphs
 
 
Dades de taula per Setembre 11, 2017
Temps Temperatura Punt de rosada Pression baro Vent Wind Speed RĂ fegues de vent Humitat Rainfall Rate (Hourly)
-17.8 °C -17.8 °C 0 hPa Calm     Humidity % 0 mm
00:00 -8.4 °C -14.1 °C 34164.7 hPa WNW 2.6 km/h 5.1 km/h 51 % 0 mm
00:01 -7.4 °C -13 °C 34198.6 hPa NNE 9 km/h 9 km/h 52 % 0 mm
00:06 -7.4 °C -13 °C 34198.6 hPa NNE 9 km/h 9 km/h 52 % 0 mm
00:10 -8.5 °C -14.2 °C 34164.7 hPa Calm   5.1 km/h 51 % 0 mm
00:20 -8.5 °C -14 °C 34164.7 hPa WSW 2.6 km/h 12.9 km/h 52 % 0 mm
00:30 -8.5 °C -14 °C 34164.7 hPa WSW 5.1 km/h 5.1 km/h 52 % 0 mm
00:40 -8.6 °C -14.1 °C 34164.7 hPa WSW 2.6 km/h 5.1 km/h 52 % 0 mm
00:50 -8.4 °C -13.9 °C 34164.7 hPa West 5.1 km/h 10.3 km/h 52 % 0 mm
01:00 -8.3 °C -13.8 °C 34164.7 hPa West 5.1 km/h 10.3 km/h 52 % 0 mm
01:10 -8.3 °C -13.8 °C 34130.9 hPa West 5.1 km/h 7.7 km/h 52 % 0 mm
01:20 -8.4 °C -13.7 °C 34130.9 hPa West 5.1 km/h 15.6 km/h 53 % 0 mm
01:30 -8.4 °C -13.7 °C 34130.9 hPa West 5.1 km/h 5.1 km/h 54 % 0 mm
01:40 -8.4 °C -13.6 °C 34130.9 hPa WSW 2.6 km/h 7.7 km/h 54 % 0 mm
01:50 -8.5 °C -13.6 °C 34130.9 hPa WSW 2.6 km/h 5.1 km/h 55 % 0 mm
02:00 -8.6 °C -13.6 °C 34164.7 hPa WSW 2.6 km/h 5.1 km/h 55 % 0 mm
02:10 -8.7 °C -13.6 °C 34130.9 hPa WSW 2.6 km/h 2.6 km/h 56 % 0 mm
02:20 -8.7 °C -13.6 °C 34130.9 hPa North 5.1 km/h 5.1 km/h 56 % 0 mm
02:30 -8.6 °C -13.3 °C 34164.7 hPa WNW 2.6 km/h 7.7 km/h 57 % 0 mm
02:40 -8.6 °C -13.2 °C 34164.7 hPa Calm   10.3 km/h 58 % 0 mm
02:50 -8.5 °C -13.1 °C 34164.7 hPa Calm   5.1 km/h 58 % 0 mm
03:00 -8.4 °C -13.1 °C 34130.9 hPa SW 2.6 km/h 5.1 km/h 58 % 0 mm
03:10 -8.1 °C -12.8 °C 34130.9 hPa SE 2.6 km/h 5.1 km/h 57 % 0 mm
03:20 -7.9 °C -12.7 °C 34130.9 hPa NW 2.6 km/h 5.1 km/h 57 % 0 mm
03:30 -7.9 °C -12.7 °C 34130.9 hPa North 5.1 km/h 7.7 km/h 57 % 0 mm
03:40 -7.6 °C -12.4 °C 34164.7 hPa NNE 2.6 km/h 5.1 km/h 57 % 0 mm
03:50 -7.5 °C -12.3 °C 34164.7 hPa WNW 5.1 km/h 15.6 km/h 57 % 0 mm
04:00 -7.1 °C -12 °C 34164.7 hPa West 2.6 km/h 7.7 km/h 57 % 0 mm
04:10 -6.7 °C -11.8 °C 34164.7 hPa West 5.1 km/h 7.7 km/h 56 % 0 mm
04:20 -6.6 °C -11.7 °C 34164.7 hPa West 2.6 km/h 5.1 km/h 55 % 0 mm
04:30 -6.7 °C -11.9 °C 34130.9 hPa West 5.1 km/h 12.9 km/h 55 % 0 mm
04:40 -6.5 °C -11.7 °C 34130.9 hPa West 12.9 km/h 12.9 km/h 55 % 0 mm
04:50 -6.3 °C -11.6 °C 34130.9 hPa West 7.7 km/h 12.9 km/h 55 % 0 mm
05:00 -6.1 °C -11.5 °C 34130.9 hPa WSW 12.9 km/h 15.6 km/h 54 % 0 mm
05:10 -5.8 °C -11.2 °C 34130.9 hPa WSW 7.7 km/h 12.9 km/h 54 % 0 mm
05:20 -5.5 °C -11.1 °C 34130.9 hPa WSW 7.7 km/h 7.7 km/h 53 % 0 mm
05:30 -5.3 °C -11 °C 34130.9 hPa SW 7.7 km/h 15.6 km/h 52 % 0 mm
05:35 -5.2 °C -11 °C 34130.9 hPa WSW 12.9 km/h 12.9 km/h 52 % 0 mm
10:35 -5.2 °C -11 °C 34130.9 hPa West 11.9 km/h 11.9 km/h 52 % 0 mm
10:40 -4.9 °C -10.8 °C 34130.9 hPa WNW 9 km/h 9 km/h 51 % 0 mm
10:45 -4.9 °C -11 °C 34130.9 hPa West 23.8 km/h 23.8 km/h 50 % 0 mm
10:50 -4.9 °C -11 °C 34164.7 hPa South 17.9 km/h 17.9 km/h 50 % 0 mm
10:55 -4.4 °C -10.6 °C 34164.7 hPa West 9 km/h 9 km/h 50 % 0 mm
11:00 -4.3 °C -10.4 °C 34164.7 hPa West 11.9 km/h 11.9 km/h 50 % 0 mm
11:05 -4.3 °C -10.6 °C 34164.7 hPa North 15 km/h 15 km/h 49 % 0 mm
11:10 -4.3 °C -10.6 °C 34164.7 hPa West 15 km/h 15 km/h 49 % 0 mm
11:15 -4.1 °C -10.4 °C 34164.7 hPa WSW 15 km/h 15 km/h 49 % 0 mm
11:20 -3.9 °C -10.3 °C 34164.7 hPa WSW 11.9 km/h 11.9 km/h 49 % 0 mm
11:25 -3.7 °C -10.4 °C 34164.7 hPa West 9.8 km/h 9.8 km/h 47 % 0 mm
11:30 -3.7 °C -10.4 °C 34164.7 hPa WSW 11.9 km/h 11.9 km/h 47 % 0 mm
11:35 -3.7 °C -10.4 °C 34164.7 hPa SSW 26.9 km/h 26.9 km/h 47 % 0 mm
11:40 -3.6 °C -10.5 °C 34164.7 hPa WSW 15 km/h 15 km/h 46 % 0 mm
11:45 -3.6 °C -10.5 °C 34164.7 hPa West 20.9 km/h 20.9 km/h 46 % 0 mm
11:50 -3.6 °C -10.5 °C 34130.9 hPa West 26.9 km/h 26.9 km/h 46 % 0 mm
11:55 -3.3 °C -10.2 °C 34130.9 hPa SSE 20.9 km/h 20.9 km/h 46 % 0 mm
12:00 -3.1 °C -10.1 °C 34130.9 hPa WSW 20.9 km/h 20.9 km/h 46 % 0 mm
12:05 -3.1 °C -10.3 °C 34130.9 hPa West 19.2 km/h 19.2 km/h 45 % 0 mm
12:10 -3.2 °C -10.3 °C 34130.9 hPa SW 23.8 km/h 23.8 km/h 45 % 0 mm
12:15 -2.8 °C -10.1 °C 34130.9 hPa WSW 22.5 km/h 22.5 km/h 45 % 0 mm
12:20 -2.8 °C -10.4 °C 34130.9 hPa SSW 17.9 km/h 17.9 km/h 43 % 0 mm
12:25 -2.7 °C -10.2 °C 34130.9 hPa SSW 20.9 km/h 20.9 km/h 43 % 0 mm
12:30 -2.8 °C -10.4 °C 34130.9 hPa SW 20.9 km/h 20.9 km/h 43 % 0 mm
12:35 -2.8 °C -10.6 °C 34130.9 hPa ESE 26.9 km/h 26.9 km/h 42 % 0 mm
12:40 -2.7 °C -10.4 °C 34130.9 hPa West 26.9 km/h 26.9 km/h 42 % 0 mm
12:45 -2.6 °C -10.4 °C 34130.9 hPa West 15.3 km/h 15.3 km/h 42 % 0 mm
12:50 -2.4 °C -10.2 °C 34130.9 hPa NNW 23.8 km/h 23.8 km/h 42 % 0 mm
12:51 -2.4 °C -10.2 °C 34130.9 hPa SW 33.2 km/h 33.2 km/h 42 % 0 mm
12:56 -2.4 °C -10.4 °C 34130.9 hPa WNW 20.3 km/h 20.3 km/h 41 % 0 mm
13:01 -2.5 °C -10.5 °C 34130.9 hPa WSW 20.9 km/h 20.9 km/h 41 % 0 mm
13:06 -2.4 °C -10.4 °C 34130.9 hPa WNW 20.9 km/h 20.9 km/h 41 % 0 mm
13:11 -2.3 °C -10.3 °C 34130.9 hPa WSW 20.9 km/h 20.9 km/h 41 % 0 mm
13:16 -2.3 °C -10.3 °C 34130.9 hPa SW 23.8 km/h 23.8 km/h 41 % 0 mm
13:21 -2.1 °C -10.1 °C 34130.9 hPa West 17.9 km/h 17.9 km/h 41 % 0 mm
13:26 -2.2 °C -10.4 °C 34130.9 hPa WNW 26.9 km/h 26.9 km/h 40 % 0 mm
13:31 -2 °C -10.3 °C 34130.9 hPa WSW 23.8 km/h 23.8 km/h 40 % 0 mm
13:36 -1.8 °C -10.1 °C 34130.9 hPa North 15 km/h 15 km/h 40 % 0 mm
13:41 -1.7 °C -10.1 °C 34130.9 hPa SW 20.9 km/h 20.9 km/h 40 % 0 mm
13:46 -1.8 °C -10.1 °C 34130.9 hPa SSE 17.9 km/h 17.9 km/h 40 % 0 mm
13:51 -1.7 °C -10.2 °C 34097 hPa WSW 15.6 km/h 15.6 km/h 39 % 0 mm
13:56 -1.5 °C -10.1 °C 34097 hPa West 15.3 km/h 15.3 km/h 39 % 0 mm
14:01 -1.3 °C -10.1 °C 34097 hPa SW 29.8 km/h 29.8 km/h 38 % 0 mm
14:06 -1.4 °C -10.2 °C 34130.9 hPa WNW 20.9 km/h 20.9 km/h 38 % 0 mm
14:11 -1.4 °C -10.2 °C 34130.9 hPa SW 17.9 km/h 17.9 km/h 38 % 0 mm
14:16 -1.5 °C -10.3 °C 34130.9 hPa WSW 15 km/h 15 km/h 38 % 0 mm
14:21 -1.6 °C -10.3 °C 34097 hPa SW 15 km/h 15 km/h 38 % 0 mm
14:26 -1.7 °C -10.4 °C 34097 hPa WSW 9 km/h 9 km/h 38 % 0 mm
14:32 -1.8 °C -10.3 °C 34097 hPa WSW 15 km/h 15 km/h 39 % 0 mm
14:37 -1.8 °C -10.3 °C 34164.7 hPa SW 9 km/h 9 km/h 39 % 0 mm
14:42 -1.6 °C -10.4 °C 34164.7 hPa West 15 km/h 15 km/h 38 % 0 mm
14:47 -1.6 °C -10.4 °C 34164.7 hPa NE 9 km/h 9 km/h 38 % 0 mm
14:52 -1.4 °C -10.2 °C 34130.9 hPa WSW 8 km/h 8 km/h 38 % 0 mm
14:57 -1.2 °C -10.1 °C 34130.9 hPa NW 11.9 km/h 11.9 km/h 38 % 0 mm
15:02 -0.9 °C -10 °C 34130.9 hPa NNE 16.1 km/h 16.1 km/h 37 % 0 mm
15:07 -1.1 °C -10.3 °C 34130.9 hPa West 15 km/h 15 km/h 36 % 0 mm
15:12 -1.3 °C -10.5 °C 34130.9 hPa WNW 17.9 km/h 17.9 km/h 36 % 0 mm
15:17 -1.4 °C -10.7 °C 34130.9 hPa West 15.3 km/h 15.3 km/h 36 % 0 mm
15:22 -1.1 °C -10.6 °C 34130.9 hPa WNW 9 km/h 9 km/h 35 % 0 mm
15:27 -0.5 °C -10.3 °C 34130.9 hPa SW 11.9 km/h 11.9 km/h 34 % 0 mm
15:32 -0.6 °C -10.4 °C 34130.9 hPa West 15 km/h 15 km/h 34 % 0 mm
15:37 -0.8 °C -10.9 °C 34097 hPa WSW 20.9 km/h 20.9 km/h 33 % 0 mm
15:42 -1.2 °C -11.2 °C 34097 hPa WSW 15 km/h 15 km/h 33 % 0 mm
15:47 -1.2 °C -11.2 °C 34097 hPa WSW 11.9 km/h 11.9 km/h 33 % 0 mm
15:52 -1.3 °C -11.6 °C 34130.9 hPa NNW 20.9 km/h 20.9 km/h 32 % 0 mm
15:57 -0.8 °C -11.2 °C 34130.9 hPa WSW 20.9 km/h 20.9 km/h 32 % 0 mm
16:02 -0.8 °C -11.1 °C 34130.9 hPa WNW 17.9 km/h 17.9 km/h 32 % 0 mm
16:07 -0.8 °C -11.1 °C 34130.9 hPa West 17.9 km/h 17.9 km/h 32 % 0 mm
16:12 -0.9 °C -11.5 °C 34130.9 hPa West 17.9 km/h 17.9 km/h 31 % 0 mm
16:17 -1.7 °C -11.9 °C 34130.9 hPa ESE 20.3 km/h 20.3 km/h 32 % 0 mm
16:22 -1.6 °C -11.8 °C 34130.9 hPa South 15 km/h 15 km/h 32 % 0 mm
16:27 -2.5 °C -12.3 °C 34130.9 hPa ESE 26.9 km/h 26.9 km/h 33 % 0 mm
16:32 -2.8 °C -12.3 °C 34130.9 hPa North 14 km/h 14 km/h 34 % 0 mm
16:37 -2.8 °C -12.1 °C 34130.9 hPa East 17.9 km/h 17.9 km/h 35 % 0 mm
16:42 -3 °C -12.1 °C 34130.9 hPa ESE 19.6 km/h 19.6 km/h 36 % 0 mm
16:47 -3.1 °C -12.2 °C 34130.9 hPa ENE 11.9 km/h 11.9 km/h 36 % 0 mm
16:52 -2.5 °C -11.6 °C 34130.9 hPa WSW 11.9 km/h 11.9 km/h 36 % 0 mm
16:57 -2.3 °C -11.4 °C 34130.9 hPa SW 12.7 km/h 12.7 km/h 36 % 0 mm
17:02 -2.9 °C -12 °C 34130.9 hPa East 20.9 km/h 20.9 km/h 36 % 0 mm
17:07 -3.1 °C -11.9 °C 34097 hPa ESE 26.4 km/h 26.4 km/h 37 % 0 mm
17:12 -3.7 °C -12.2 °C 34097 hPa SW 29.8 km/h 29.8 km/h 38 % 0 mm
17:17 -3.5 °C -12.1 °C 34097 hPa ENE 15.3 km/h 15.3 km/h 38 % 0 mm
17:22 -3.6 °C -11.9 °C 34097 hPa SSE 17.9 km/h 17.9 km/h 39 % 0 mm
17:27 -3.8 °C -12.1 °C 34097 hPa ESE 23.8 km/h 23.8 km/h 39 % 0 mm
17:32 -3.7 °C -11.8 °C 34097 hPa NNE 15 km/h 15 km/h 40 % 0 mm
17:37 -3.6 °C -11.7 °C 34130.9 hPa NNW 11.1 km/h 11.1 km/h 40 % 0 mm
17:42 -3.3 °C -11.4 °C 34130.9 hPa West 15 km/h 15 km/h 40 % 0 mm
17:47 -3.1 °C -11.2 °C 34130.9 hPa WSW 19.2 km/h 19.2 km/h 40 % 0 mm
17:52 -2.3 °C -11.2 °C 34130.9 hPa NNW 26.9 km/h 26.9 km/h 37 % 0 mm
17:57 -2 °C -11.2 °C 34130.9 hPa WNW 22 km/h 22 km/h 36 % 0 mm
18:02 -1.8 °C -11.2 °C 34130.9 hPa WSW 26.9 km/h 26.9 km/h 35 % 0 mm
18:07 -1.7 °C -11.3 °C 34130.9 hPa West 9.8 km/h 9.8 km/h 34 % 0 mm
18:12 -2.4 °C -11.6 °C 34130.9 hPa WSW 17.9 km/h 17.9 km/h 36 % 0 mm
18:17 -1.9 °C -11.3 °C 34130.9 hPa ENE 6 km/h 6.3 km/h 35 % 0 mm
18:22 -2.4 °C -11.3 °C 34130.9 hPa ENE 17.9 km/h 17.9 km/h 37 % 0 mm
18:27 -2.3 °C -11.9 °C 34130.9 hPa SW 32.8 km/h 32.8 km/h 34 % 0 mm
18:32 -2.2 °C -11.8 °C 34130.9 hPa SW 19.2 km/h 19.2 km/h 34 % 0 mm
18:37 -2.2 °C -11.8 °C 34130.9 hPa SW 19.2 km/h 19.2 km/h 34 % 0 mm
18:42 -2.2 °C -11.8 °C 34130.9 hPa SW 19.2 km/h 19.2 km/h 34 % 0 mm
18:47 -2.2 °C -11.8 °C 34130.9 hPa SW 19.2 km/h 19.2 km/h 34 % 0 mm
18:52 -2.2 °C -11.8 °C 34130.9 hPa SW 19.2 km/h 19.2 km/h 34 % 0 mm
18:57 -2.2 °C -11.8 °C 34130.9 hPa SW 19.2 km/h 19.2 km/h 34 % 0 mm
19:02 -2.2 °C -11.8 °C 34130.9 hPa SW 19.2 km/h 19.2 km/h 34 % 0 mm
19:07 -2.2 °C -11.8 °C 34130.9 hPa SW 19.2 km/h 19.2 km/h 34 % 0 mm
19:12 -2.2 °C -11.8 °C 34130.9 hPa SW 19.2 km/h 19.2 km/h 34 % 0 mm
19:17 -2.2 °C -11.8 °C 34130.9 hPa SW 19.2 km/h 19.2 km/h 34 % 0 mm
19:20 -6.9 °C -9.4 °C 34198.6 hPa SW 2.6 km/h 7.7 km/h 75 % 0 mm
19:22 -2.2 °C -11.8 °C 34130.9 hPa SW 19.2 km/h 19.2 km/h 34 % 0 mm
19:27 -2.2 °C -11.8 °C 34130.9 hPa SW 19.2 km/h 19.2 km/h 34 % 0 mm
19:30 -6.9 °C -9.5 °C 34198.6 hPa NNE 5.1 km/h 7.7 km/h 75 % 0 mm
19:32 -2.2 °C -11.8 °C 34130.9 hPa SW 19.2 km/h 19.2 km/h 34 % 0 mm
19:37 -2.2 °C -11.8 °C 34130.9 hPa SW 19.2 km/h 19.2 km/h 34 % 0 mm
19:40 -6.9 °C -9.5 °C 34198.6 hPa NE 5.1 km/h 7.7 km/h 75 % 0 mm
19:42 -2.2 °C -11.8 °C 34130.9 hPa SW 19.2 km/h 19.2 km/h 34 % 0 mm
19:43 -2.2 °C -11.8 °C 34130.9 hPa SW 19.2 km/h 19.2 km/h 34 % 0 mm
19:48 -2.2 °C -11.8 °C 34130.9 hPa SW 19.2 km/h 19.2 km/h 34 % 0 mm
19:50 -7 °C -9.6 °C 34198.6 hPa Calm   5.1 km/h 75 % 0 mm
19:53 -2.2 °C -11.8 °C 34130.9 hPa SW 19.2 km/h 19.2 km/h 34 % 0 mm
19:58 -2.2 °C -11.8 °C 34130.9 hPa SW 19.2 km/h 19.2 km/h 34 % 0 mm
20:00 -7 °C -9.6 °C 34198.6 hPa NNE 2.6 km/h 2.6 km/h 75 % 0 mm
20:03 -2.2 °C -11.8 °C 34130.9 hPa SW 19.2 km/h 19.2 km/h 34 % 0 mm
20:08 -2.2 °C -11.8 °C 34130.9 hPa SW 19.2 km/h 19.2 km/h 34 % 0 mm
20:10 -7.1 °C -9.5 °C 34198.6 hPa NNE 2.6 km/h 5.1 km/h 76 % 0 mm
20:13 -2.2 °C -11.8 °C 34130.9 hPa SW 19.2 km/h 19.2 km/h 34 % 0 mm
20:18 -2.2 °C -11.8 °C 34130.9 hPa SW 19.2 km/h 19.2 km/h 34 % 0 mm
20:20 -7.1 °C -9.5 °C 34198.6 hPa North 2.6 km/h 5.1 km/h 76 % 0 mm
20:23 -2.2 °C -11.8 °C 34130.9 hPa SW 19.2 km/h 19.2 km/h 34 % 0 mm
20:28 -2.2 °C -11.8 °C 34130.9 hPa SW 19.2 km/h 19.2 km/h 34 % 0 mm
20:30 -7.2 °C -9.6 °C 34198.6 hPa NNE 2.6 km/h 5.1 km/h 76 % 0 mm
20:33 -2.2 °C -11.8 °C 34130.9 hPa SW 19.2 km/h 19.2 km/h 34 % 0 mm
20:38 -2.2 °C -11.8 °C 34130.9 hPa SW 19.2 km/h 19.2 km/h 34 % 0 mm
20:40 -7.2 °C -9.6 °C 34198.6 hPa Calm   5.1 km/h 76 % 0 mm
20:43 -2.2 °C -11.8 °C 34130.9 hPa SW 19.2 km/h 19.2 km/h 34 % 0 mm
20:48 -2.2 °C -11.8 °C 34130.9 hPa SW 19.2 km/h 19.2 km/h 34 % 0 mm
20:50 -7.2 °C -9.6 °C 34198.6 hPa Calm   2.6 km/h 76 % 0 mm
20:53 -2.2 °C -11.8 °C 34130.9 hPa SW 19.2 km/h 19.2 km/h 34 % 0 mm
20:58 -2.2 °C -11.8 °C 34130.9 hPa SW 19.2 km/h 19.2 km/h 34 % 0 mm
21:00 -7.3 °C -9.4 °C 34222.3 hPa Calm   2.6 km/h 78 % 0 mm
21:03 -2.2 °C -11.8 °C 34130.9 hPa SW 19.2 km/h 19.2 km/h 34 % 0 mm
21:08 -2.2 °C -11.8 °C 34130.9 hPa SW 19.2 km/h 19.2 km/h 34 % 0 mm
21:10 -7.3 °C -9.4 °C 34222.3 hPa Calm   2.6 km/h 78 % 0 mm
21:13 -2.2 °C -11.8 °C 34130.9 hPa SW 19.2 km/h 19.2 km/h 34 % 0 mm
21:18 -2.2 °C -11.8 °C 34130.9 hPa SW 19.2 km/h 19.2 km/h 34 % 0 mm
21:20 -7.2 °C -9.6 °C 34222.3 hPa North 2.6 km/h 5.1 km/h 76 % 0 mm
21:23 -2.2 °C -11.8 °C 34130.9 hPa SW 19.2 km/h 19.2 km/h 34 % 0 mm
21:28 -2.2 °C -11.8 °C 34130.9 hPa SW 19.2 km/h 19.2 km/h 34 % 0 mm
21:30 -7.3 °C -9.4 °C 34198.6 hPa Calm     78 % 0 mm
21:33 -2.2 °C -11.8 °C 34130.9 hPa SW 19.2 km/h 19.2 km/h 34 % 0 mm
21:38 -2.2 °C -11.8 °C 34130.9 hPa SW 19.2 km/h 19.2 km/h 34 % 0 mm
21:40 -7.4 °C -9.6 °C 34222.3 hPa WNW 2.6 km/h 5.1 km/h 78 % 0 mm
21:43 -2.2 °C -11.8 °C 34130.9 hPa SW 19.2 km/h 19.2 km/h 34 % 0 mm
21:48 -2.2 °C -11.8 °C 34130.9 hPa SW 19.2 km/h 19.2 km/h 34 % 0 mm
21:50 -7.5 °C -9.7 °C 34222.3 hPa West 2.6 km/h 5.1 km/h 78 % 0 mm
21:53 -2.2 °C -11.8 °C 34130.9 hPa SW 19.2 km/h 19.2 km/h 34 % 0 mm
21:58 -2.2 °C -11.8 °C 34130.9 hPa SW 19.2 km/h 19.2 km/h 34 % 0 mm
22:00 -7.5 °C -9.7 °C 34222.3 hPa WSW 2.6 km/h 2.6 km/h 78 % 0 mm
22:03 -2.2 °C -11.8 °C 34130.9 hPa SW 19.2 km/h 19.2 km/h 34 % 0 mm
22:08 -2.2 °C -11.8 °C 34130.9 hPa SW 19.2 km/h 19.2 km/h 34 % 0 mm
22:10 -7.5 °C -9.7 °C 34222.3 hPa WSW 2.6 km/h 2.6 km/h 78 % 0 mm
22:13 -2.2 °C -11.8 °C 34130.9 hPa SW 19.2 km/h 19.2 km/h 34 % 0 mm
22:18 -2.2 °C -11.8 °C 34130.9 hPa SW 19.2 km/h 19.2 km/h 34 % 0 mm
22:20 -7.4 °C -9.5 °C 34222.3 hPa West 2.6 km/h 5.1 km/h 79 % 0 mm
22:23 -2.2 °C -11.8 °C 34130.9 hPa SW 19.2 km/h 19.2 km/h 34 % 0 mm
22:28 -2.2 °C -11.8 °C 34130.9 hPa SW 19.2 km/h 19.2 km/h 34 % 0 mm
22:30 -7.4 °C -9.4 °C 34222.3 hPa Calm   2.6 km/h 80 % 0 mm
22:33 -2.2 °C -11.8 °C 34130.9 hPa SW 19.2 km/h 19.2 km/h 34 % 0 mm
22:38 -2.2 °C -11.8 °C 34130.9 hPa SW 19.2 km/h 19.2 km/h 34 % 0 mm
22:40 -7.5 °C -9.6 °C 34222.3 hPa Calm   2.6 km/h 79 % 0 mm
22:43 -2.2 °C -11.8 °C 34130.9 hPa SW 19.2 km/h 19.2 km/h 34 % 0 mm
22:48 -2.2 °C -11.8 °C 34130.9 hPa SW 19.2 km/h 19.2 km/h 34 % 0 mm
22:50 -7.4 °C -9.4 °C 34222.3 hPa Calm     80 % 0 mm
22:53 -2.2 °C -11.8 °C 34130.9 hPa SW 19.2 km/h 19.2 km/h 34 % 0 mm
22:58 -2.2 °C -11.8 °C 34130.9 hPa SW 19.2 km/h 19.2 km/h 34 % 0 mm
23:00 -7.4 °C -9.4 °C 34222.3 hPa Calm   2.6 km/h 80 % 0 mm
23:03 -2.2 °C -11.8 °C 34130.9 hPa SW 19.2 km/h 19.2 km/h 34 % 0 mm
23:08 -2.2 °C -11.8 °C 34130.9 hPa SW 19.2 km/h 19.2 km/h 34 % 0 mm
23:10 -7.5 °C -9.4 °C 34222.3 hPa Calm     80 % 0 mm
23:13 -2.2 °C -11.8 °C 34130.9 hPa SW 19.2 km/h 19.2 km/h 34 % 0 mm
23:18 -2.2 °C -11.8 °C 34130.9 hPa SW 19.2 km/h 19.2 km/h 34 % 0 mm
23:20 -7.6 °C -9.6 °C 34222.3 hPa Calm   2.6 km/h 80 % 0 mm
23:23 -2.2 °C -11.8 °C 34130.9 hPa SW 19.2 km/h 19.2 km/h 34 % 0 mm
23:28 -2.2 °C -11.8 °C 34130.9 hPa SW 19.2 km/h 19.2 km/h 34 % 0 mm
23:30 -7.7 °C -9.5 °C 34222.3 hPa SW 2.6 km/h 7.7 km/h 81 % 0 mm
23:33 -2.2 °C -11.8 °C 34130.9 hPa SW 19.2 km/h 19.2 km/h 34 % 0 mm
23:38 -2.2 °C -11.8 °C 34130.9 hPa SW 19.2 km/h 19.2 km/h 34 % 0 mm
23:40 -7.8 °C -9.8 °C 34256.2 hPa SSW 2.6 km/h 5.1 km/h 80 % 0 mm
23:43 -2.2 °C -11.8 °C 34130.9 hPa SW 19.2 km/h 19.2 km/h 34 % 0 mm
23:48 -2.2 °C -11.8 °C 34130.9 hPa SW 19.2 km/h 19.2 km/h 34 % 0 mm
23:50 -7.9 °C -9.7 °C 34256.2 hPa WSW 2.6 km/h 2.6 km/h 81 % 0 mm
23:53 -2.2 °C -11.8 °C 34130.9 hPa SW 19.2 km/h 19.2 km/h 34 % 0 mm
23:58 -2.2 °C -11.8 °C 34130.9 hPa SW 19.2 km/h 19.2 km/h 34 % 0 mm
Meteo Sesrovires
Elogis d' Weather Underground - 2 mb

Guio original per  Jim McMurry - jmcmurry@mwt.net Adaptat per a la plantilla per  Wim van der Kuil - Leuven-Template.eu

Trobareu la nostra informacio del temps tambe a:

Weather Underground

AWEKAS